createdAt,value
2019-05-17T00:02:07.017Z,79.30
2019-05-17T00:04:38.037Z,79.40
2019-05-17T00:07:09.284Z,79.70
2019-05-17T00:09:40.543Z,79.70
2019-05-17T00:12:11.406Z,79.90
2019-05-17T00:14:42.259Z,79.90
2019-05-17T00:17:13.123Z,80.10
2019-05-17T00:19:46.369Z,80.10
2019-05-17T00:22:16.847Z,80.20
2019-05-17T00:24:47.852Z,80.30
2019-05-17T00:27:18.818Z,80.40
2019-05-17T00:29:49.886Z,80.50
2019-05-17T00:32:20.797Z,80.60
2019-05-17T00:34:51.677Z,80.80
2019-05-17T00:37:22.636Z,81.10
2019-05-17T00:39:53.615Z,81.10
2019-05-17T00:42:26.457Z,81.20
2019-05-17T00:44:57.027Z,81.30
2019-05-17T00:47:27.873Z,81.60
2019-05-17T00:49:58.808Z,81.60
2019-05-17T00:52:29.717Z,81.60
2019-05-17T00:55:00.667Z,81.40
2019-05-17T00:57:31.578Z,81.70
2019-05-17T01:00:02.487Z,81.90
2019-05-17T01:02:36.293Z,81.80
2019-05-17T01:05:07.381Z,82.00
2019-05-17T01:07:38.253Z,82.10
2019-05-17T01:10:10.009Z,82.10
2019-05-17T01:12:40.836Z,82.00
2019-05-17T01:15:12.129Z,82.10
2019-05-17T01:17:43.066Z,82.10
2019-05-17T01:20:14.274Z,82.20
2019-05-17T01:22:47.478Z,82.20
2019-05-17T01:25:17.763Z,82.40
2019-05-17T01:27:48.659Z,82.40
2019-05-17T01:30:20.071Z,82.50
2019-05-17T01:32:51.661Z,82.50
2019-05-17T01:35:22.584Z,82.60
2019-05-17T01:37:53.405Z,82.60
2019-05-17T01:40:26.443Z,82.70
2019-05-17T01:42:58.160Z,82.80
2019-05-17T01:45:29.150Z,83.00
2019-05-17T01:48:00.019Z,83.00
2019-05-17T01:50:31.047Z,83.00
2019-05-17T01:53:04.126Z,82.80
2019-05-17T01:55:37.197Z,82.90
2019-05-17T01:58:07.747Z,82.70
2019-05-17T02:00:40.090Z,83.00
2019-05-17T02:03:11.039Z,82.90
2019-05-17T02:05:41.910Z,82.80
2019-05-17T02:08:13.089Z,82.90
2019-05-17T02:10:46.519Z,83.00
2019-05-17T02:13:16.794Z,83.00
2019-05-17T02:15:47.650Z,83.00
2019-05-17T02:18:18.663Z,83.10
2019-05-17T02:20:49.918Z,83.10
2019-05-17T02:23:22.283Z,83.10
2019-05-17T02:25:53.291Z,83.30
2019-05-17T02:28:26.386Z,83.40
2019-05-17T02:30:58.647Z,83.40
2019-05-17T02:33:33.335Z,83.70
2019-05-17T02:36:04.012Z,83.60
2019-05-17T02:38:35.713Z,83.60
2019-05-17T02:41:06.841Z,84.50
2019-05-17T02:43:39.067Z,84.00
2019-05-17T02:46:13.620Z,84.10
2019-05-17T02:48:43.786Z,84.10
2019-05-17T02:51:14.688Z,84.30
2019-05-17T02:53:45.849Z,84.30
2019-05-17T02:56:17.077Z,84.50
2019-05-17T02:58:49.114Z,84.50
2019-05-17T03:01:22.921Z,84.50
2019-05-17T03:03:55.458Z,84.70
2019-05-17T03:06:26.540Z,84.90
2019-05-17T03:08:57.597Z,85.10
2019-05-17T03:11:28.916Z,85.20
2019-05-17T03:14:03.670Z,85.30
2019-05-17T03:16:33.853Z,85.30
2019-05-17T03:19:05.252Z,85.40
2019-05-17T03:21:36.158Z,85.30
2019-05-17T03:24:08.944Z,85.30
2019-05-17T03:26:42.730Z,85.20
2019-05-17T03:29:13.661Z,85.20
2019-05-17T03:31:53.446Z,85.30
2019-05-17T03:34:18.691Z,85.30
2019-05-17T03:36:55.843Z,85.20
2019-05-17T03:39:23.424Z,85.20
2019-05-17T03:41:54.394Z,85.30
2019-05-17T03:44:26.730Z,85.40
2019-05-17T03:46:57.570Z,85.40
2019-05-17T03:49:28.668Z,85.40
2019-05-17T03:52:02.820Z,85.50
2019-05-17T03:54:33.658Z,85.50
2019-05-17T03:57:04.670Z,85.40
2019-05-17T03:59:35.626Z,85.30
2019-05-17T04:02:06.567Z,85.40
2019-05-17T04:04:38.964Z,85.10
2019-05-17T04:07:12.756Z,85.20
2019-05-17T04:09:44.042Z,85.00
2019-05-17T04:12:15.054Z,84.80
2019-05-17T04:14:46.070Z,84.60
2019-05-17T04:17:18.112Z,84.20
2019-05-17T04:19:49.415Z,84.00
2019-05-17T04:22:23.619Z,84.00
2019-05-17T04:24:53.628Z,83.90
2019-05-17T04:27:24.646Z,83.80
2019-05-17T04:29:55.736Z,83.30
2019-05-17T04:32:26.624Z,83.30
2019-05-17T04:34:58.660Z,83.50
2019-05-17T04:37:33.594Z,83.20
2019-05-17T04:40:03.811Z,83.30
2019-05-17T04:42:36.006Z,83.30
2019-05-17T04:45:07.707Z,83.20
2019-05-17T04:47:38.630Z,83.40
2019-05-17T04:50:12.927Z,83.60
2019-05-17T04:52:43.098Z,83.40
2019-05-17T04:55:15.754Z,83.40
2019-05-17T04:57:46.632Z,83.70
2019-05-17T05:00:18.962Z,83.50
2019-05-17T05:02:52.535Z,83.00
2019-05-17T05:05:23.133Z,82.80
2019-05-17T05:07:55.528Z,82.50
2019-05-17T05:10:26.428Z,82.10
2019-05-17T05:12:57.248Z,82.10
2019-05-17T05:15:43.735Z,82.00
2019-05-17T05:18:14.328Z,81.60
2019-05-17T05:20:47.276Z,80.70
2019-05-17T05:23:18.192Z,80.00
2019-05-17T05:25:52.306Z,79.70
2019-05-17T05:28:25.053Z,79.70
2019-05-17T05:31:01.858Z,79.70
2019-05-17T05:33:33.408Z,80.20
2019-05-17T05:36:04.347Z,80.20
2019-05-17T05:38:37.344Z,80.00
2019-05-17T05:41:08.281Z,79.80
2019-05-17T05:43:39.157Z,76.80
2019-05-17T05:46:11.662Z,72.30
2019-05-17T05:48:42.753Z,68.00
2019-05-17T05:51:13.906Z,68.20
2019-05-17T05:53:45.495Z,67.70
2019-05-17T05:56:16.369Z,67.90
2019-05-17T05:58:47.658Z,68.70
2019-05-17T06:01:18.676Z,67.40
2019-05-17T06:03:51.894Z,65.60
2019-05-17T06:06:22.134Z,62.30
2019-05-17T06:08:53.495Z,60.40
2019-05-17T06:11:24.929Z,60.90
2019-05-17T06:13:56.307Z,61.40
2019-05-17T06:16:27.265Z,60.50
2019-05-17T06:18:58.163Z,60.90
2019-05-17T06:21:29.094Z,59.10
2019-05-17T06:24:02.421Z,59.20
2019-05-17T06:26:32.643Z,57.40
2019-05-17T06:29:03.613Z,55.90
2019-05-17T06:31:36.879Z,54.00
2019-05-17T06:34:06.899Z,51.60
2019-05-17T06:36:37.908Z,50.60
2019-05-17T06:39:11.679Z,48.90
2019-05-17T06:41:42.308Z,46.90
2019-05-17T06:44:13.149Z,43.60
2019-05-17T06:46:44.449Z,42.10
2019-05-17T06:49:16.456Z,42.10
2019-05-17T06:51:47.223Z,40.30
2019-05-17T06:54:18.191Z,39.10
2019-05-17T06:56:49.273Z,38.00
2019-05-17T06:59:21.161Z,39.50
2019-05-17T07:01:52.259Z,39.20
2019-05-17T07:04:23.150Z,40.30
2019-05-17T07:07:11.682Z,40.30
2019-05-17T07:09:42.723Z,41.40
2019-05-17T07:12:13.954Z,41.50
2019-05-17T07:14:44.821Z,42.80
2019-05-17T07:17:15.618Z,42.60
2019-05-17T07:19:46.453Z,42.60
2019-05-17T07:22:17.438Z,43.00
2019-05-17T07:24:50.245Z,43.40
2019-05-17T07:27:21.552Z,42.10
2019-05-17T07:29:52.929Z,41.20
2019-05-17T07:32:23.817Z,40.00
2019-05-17T07:34:54.858Z,38.30
2019-05-17T07:37:25.827Z,37.80
2019-05-17T07:40:03.962Z,35.60
2019-05-17T07:42:32.997Z,34.60
2019-05-17T07:45:04.445Z,32.10
2019-05-17T07:47:35.353Z,30.50
2019-05-17T07:50:06.305Z,31.60
2019-05-17T07:52:39.579Z,31.20
2019-05-17T07:55:11.075Z,31.90
2019-05-17T07:57:42.251Z,32.60
2019-05-17T08:00:14.040Z,32.70
2019-05-17T08:02:45.375Z,32.50
2019-05-17T08:05:16.911Z,31.40
2019-05-17T08:07:49.979Z,30.20
2019-05-17T08:10:22.082Z,29.70
2019-05-17T08:12:53.116Z,30.50
2019-05-17T08:15:24.246Z,30.80
2019-05-17T08:17:58.317Z,30.50
2019-05-17T08:20:29.916Z,29.90
2019-05-17T08:23:01.281Z,29.60
2019-05-17T08:25:32.424Z,30.40
2019-05-17T08:28:04.665Z,31.30
2019-05-17T08:30:36.695Z,31.50
2019-05-17T08:33:10.776Z,31.90
2019-05-17T08:35:41.196Z,30.80
2019-05-17T08:38:12.133Z,31.10
2019-05-17T08:40:43.121Z,31.80
2019-05-17T08:43:14.825Z,31.60
2019-05-17T08:45:45.955Z,31.60
2019-05-17T08:48:16.950Z,31.10
2019-05-17T08:50:49.465Z,31.90
2019-05-17T08:53:20.375Z,33.50
2019-05-17T08:55:51.377Z,33.00
2019-05-17T08:58:22.375Z,32.00
2019-05-17T09:00:53.343Z,31.00
2019-05-17T09:03:24.650Z,31.70
2019-05-17T09:05:55.541Z,32.70
2019-05-17T09:08:26.489Z,33.90
2019-05-17T09:11:00.084Z,34.80
2019-05-17T09:13:30.045Z,35.90
2019-05-17T09:16:02.047Z,36.30
2019-05-17T09:18:32.973Z,36.70
2019-05-17T09:21:03.924Z,37.30
2019-05-17T09:23:34.997Z,37.80
2019-05-17T09:26:06.011Z,38.40
2019-05-17T09:28:39.236Z,39.10
2019-05-17T09:31:10.658Z,39.20
2019-05-17T09:33:41.554Z,39.50
2019-05-17T09:36:12.703Z,39.80
2019-05-17T09:38:43.656Z,40.20
2019-05-17T09:41:15.702Z,40.50
2019-05-17T09:43:49.645Z,41.30
2019-05-17T09:46:21.029Z,41.80
2019-05-17T09:48:51.952Z,42.00
2019-05-17T09:51:22.873Z,42.00
2019-05-17T09:53:54.127Z,41.80
2019-05-17T09:56:25.250Z,41.60
2019-05-17T09:58:56.193Z,40.90
2019-05-17T10:01:27.549Z,40.80
2019-05-17T10:03:59.904Z,41.40
2019-05-17T10:06:31.076Z,41.60
2019-05-17T10:09:02.009Z,41.90
2019-05-17T10:11:35.574Z,42.00
2019-05-17T10:14:06.641Z,42.20
2019-05-17T10:16:37.759Z,42.50
2019-05-17T10:19:09.689Z,42.70
2019-05-17T10:21:40.721Z,42.50
2019-05-17T10:24:11.867Z,41.20
2019-05-17T10:26:44.851Z,40.60
2019-05-17T10:29:15.778Z,40.30
2019-05-17T10:31:47.321Z,40.80
2019-05-17T10:34:20.223Z,41.30
2019-05-17T10:36:50.830Z,41.20
2019-05-17T10:39:22.972Z,41.00
2019-05-17T10:41:53.909Z,40.20
2019-05-17T10:44:25.085Z,39.40
2019-05-17T10:46:56.149Z,39.30
2019-05-17T10:49:29.419Z,39.40
2019-05-17T10:52:00.328Z,39.30
2019-05-17T10:54:31.241Z,39.50
2019-05-17T10:57:02.463Z,38.70
2019-05-17T10:59:33.669Z,38.30
2019-05-17T11:02:04.837Z,38.50
2019-05-17T11:04:35.842Z,39.30
2019-05-17T11:07:06.981Z,39.50
2019-05-17T11:09:40.125Z,40.50
2019-05-17T11:12:13.018Z,40.70
2019-05-17T11:14:55.874Z,40.50
2019-05-17T11:17:16.793Z,39.60
2019-05-17T11:19:47.995Z,39.80
2019-05-17T11:22:19.374Z,39.90
2019-05-17T11:24:50.388Z,39.70
2019-05-17T11:27:21.306Z,39.80
2019-05-17T11:29:52.514Z,39.00
2019-05-17T11:32:23.531Z,39.20
2019-05-17T11:34:54.520Z,40.00
2019-05-17T11:37:25.864Z,38.60
2019-05-17T11:39:56.849Z,39.50
2019-05-17T11:42:27.759Z,39.20
2019-05-17T11:44:58.731Z,39.40
2019-05-17T11:47:29.756Z,40.50
2019-05-17T11:50:00.988Z,39.90
2019-05-17T11:52:31.909Z,39.70
2019-05-17T11:55:06.184Z,39.40
2019-05-17T11:57:37.297Z,39.60
2019-05-17T12:00:10.109Z,40.10
2019-05-17T12:02:42.290Z,40.60
2019-05-17T12:05:13.576Z,41.20
2019-05-17T12:07:46.013Z,41.40
2019-05-17T12:10:18.615Z,41.60
2019-05-17T12:12:49.822Z,42.10
2019-05-17T12:15:20.894Z,42.10
2019-05-17T12:17:51.703Z,42.30
2019-05-17T12:20:22.928Z,42.60
2019-05-17T12:22:53.857Z,42.90
2019-05-17T12:25:24.835Z,43.10
2019-05-17T12:27:55.778Z,43.20
2019-05-17T12:30:26.628Z,43.50
2019-05-17T12:32:57.814Z,43.60
2019-05-17T12:35:28.575Z,43.80
2019-05-17T12:37:59.645Z,43.60
2019-05-17T12:40:30.629Z,43.50
2019-05-17T12:43:01.672Z,43.80
2019-05-17T12:45:33.025Z,43.70
2019-05-17T12:48:04.432Z,43.90
2019-05-17T12:50:35.513Z,43.80
2019-05-17T12:53:06.423Z,44.10
2019-05-17T12:55:37.270Z,44.00
2019-05-17T12:58:08.821Z,44.20
2019-05-17T13:00:39.832Z,44.10
2019-05-17T13:03:10.945Z,44.50
2019-05-17T13:05:42.246Z,44.80
2019-05-17T13:08:13.425Z,44.80
2019-05-17T13:10:44.459Z,45.00
2019-05-17T13:13:15.915Z,45.10
2019-05-17T13:15:47.221Z,45.10
2019-05-17T13:18:18.098Z,45.20
2019-05-17T13:20:49.311Z,45.40
2019-05-17T13:23:20.479Z,45.40
2019-05-17T13:25:51.367Z,45.40
2019-05-17T13:28:22.570Z,45.20
2019-05-17T13:30:54.576Z,45.10
2019-05-17T13:33:28.985Z,45.80
2019-05-17T13:35:58.574Z,45.10
2019-05-17T13:38:29.584Z,45.10
2019-05-17T13:41:00.589Z,45.00
2019-05-17T13:43:31.844Z,45.00
2019-05-17T13:46:02.786Z,45.20
2019-05-17T13:48:33.717Z,45.30
2019-05-17T13:51:05.118Z,45.30
2019-05-17T13:53:38.208Z,45.20
2019-05-17T13:56:09.115Z,45.30
2019-05-17T13:58:40.108Z,45.30
2019-05-17T14:01:12.989Z,45.30
2019-05-17T14:03:43.833Z,45.10
2019-05-17T14:06:14.735Z,44.90
2019-05-17T14:08:45.777Z,45.60
2019-05-17T14:11:16.803Z,44.80
2019-05-17T14:13:47.851Z,44.80
2019-05-17T14:16:19.239Z,44.80
2019-05-17T14:18:51.258Z,45.10
2019-05-17T14:21:22.364Z,44.40
2019-05-17T14:23:53.332Z,45.00
2019-05-17T14:26:24.340Z,45.20
2019-05-17T14:28:55.946Z,45.30
2019-05-17T14:31:26.866Z,45.30
2019-05-17T14:33:58.353Z,44.50
2019-05-17T14:36:29.397Z,44.70
2019-05-17T14:39:00.237Z,44.70
2019-05-17T14:41:31.412Z,44.50
2019-05-17T14:44:03.366Z,44.30
2019-05-17T14:46:34.173Z,44.10
2019-05-17T14:49:06.421Z,43.90
2019-05-17T14:51:37.293Z,43.90
2019-05-17T14:54:08.190Z,43.50
2019-05-17T14:56:39.305Z,43.50
2019-05-17T14:59:10.212Z,43.80
2019-05-17T15:01:41.230Z,44.10
2019-05-17T15:04:12.322Z,44.30
2019-05-17T15:06:43.356Z,44.20
2019-05-17T15:09:16.063Z,44.00
2019-05-17T15:11:46.912Z,43.80
2019-05-17T15:14:18.146Z,43.70
2019-05-17T15:16:48.962Z,43.80
2019-05-17T15:19:19.799Z,43.80
2019-05-17T15:21:50.846Z,43.60
2019-05-17T15:24:21.982Z,43.70
2019-05-17T15:27:04.787Z,43.80
2019-05-17T15:29:25.810Z,44.20
2019-05-17T15:31:58.296Z,44.60
2019-05-17T15:34:29.158Z,45.00
2019-05-17T15:37:00.035Z,45.10
2019-05-17T15:39:31.027Z,45.10
2019-05-17T15:42:01.948Z,45.20
2019-05-17T15:44:32.904Z,45.30
2019-05-17T15:47:03.845Z,46.20
2019-05-17T15:49:34.828Z,45.60
2019-05-17T15:52:07.080Z,45.80
2019-05-17T15:54:38.663Z,45.90
2019-05-17T15:57:11.105Z,46.00
2019-05-17T15:59:42.186Z,46.10
2019-05-17T16:02:13.321Z,46.20
2019-05-17T16:04:44.451Z,46.20
2019-05-17T16:07:15.539Z,46.50
2019-05-17T16:09:47.435Z,46.50
2019-05-17T16:12:18.970Z,46.60
2019-05-17T16:14:51.299Z,46.70
2019-05-17T16:17:22.543Z,46.80
2019-05-17T16:19:53.441Z,46.90
2019-05-17T16:22:24.794Z,46.80
2019-05-17T16:24:55.680Z,46.80
2019-05-17T16:27:26.550Z,46.70
2019-05-17T16:29:57.477Z,46.70
2019-05-17T16:32:28.509Z,46.70
2019-05-17T16:34:59.504Z,46.80
2019-05-17T16:37:30.361Z,47.10
2019-05-17T16:40:01.193Z,47.20
2019-05-17T16:42:33.366Z,47.10
2019-05-17T16:45:04.502Z,47.30
2019-05-17T16:47:35.406Z,47.40
2019-05-17T16:50:06.825Z,47.60
2019-05-17T16:52:37.755Z,47.90
2019-05-17T16:55:09.097Z,47.90
2019-05-17T16:57:40.128Z,47.90
2019-05-17T17:00:30.462Z,48.10
2019-05-17T17:03:01.287Z,48.20
2019-05-17T17:05:32.270Z,48.20
2019-05-17T17:08:03.249Z,48.30
2019-05-17T17:10:34.125Z,49.10
2019-05-17T17:13:05.132Z,48.50
2019-05-17T17:15:36.048Z,48.70
2019-05-17T17:18:07.044Z,48.80
2019-05-17T17:20:38.010Z,48.80
2019-05-17T17:23:09.067Z,48.80
2019-05-17T17:25:40.012Z,48.90
2019-05-17T17:28:10.888Z,49.00
2019-05-17T17:30:41.820Z,49.20
2019-05-17T17:33:12.666Z,49.10
2019-05-17T17:35:43.919Z,49.20
2019-05-17T17:38:14.699Z,49.20
2019-05-17T17:40:45.589Z,49.30
2019-05-17T17:43:16.980Z,49.30
2019-05-17T17:45:47.916Z,49.50
2019-05-17T17:48:18.803Z,49.50
2019-05-17T17:50:50.083Z,49.60
2019-05-17T17:53:21.101Z,49.60
2019-05-17T17:55:52.230Z,49.70
2019-05-17T17:58:23.243Z,49.70
2019-05-17T18:00:54.168Z,49.90
2019-05-17T18:03:25.593Z,49.90
2019-05-17T18:05:56.462Z,50.00
2019-05-17T18:08:27.390Z,50.10
2019-05-17T18:10:58.367Z,50.20
2019-05-17T18:13:29.559Z,50.60
2019-05-17T18:16:01.472Z,50.40
2019-05-17T18:18:32.416Z,50.60
2019-05-17T18:21:03.349Z,50.60
2019-05-17T18:23:34.186Z,50.80
2019-05-17T18:26:05.547Z,50.80
2019-05-17T18:28:36.679Z,51.00
2019-05-17T18:31:15.247Z,51.20
2019-05-17T18:33:46.177Z,51.20
2019-05-17T18:36:17.075Z,51.30
2019-05-17T18:38:51.164Z,51.60
2019-05-17T18:41:23.071Z,51.80
2019-05-17T18:43:53.951Z,51.90
2019-05-17T18:46:24.919Z,51.90
2019-05-17T18:48:55.876Z,52.20
2019-05-17T18:51:27.128Z,52.30
2019-05-17T18:53:58.415Z,52.30
2019-05-17T18:56:35.301Z,52.50
2019-05-17T18:59:07.012Z,52.60
2019-05-17T19:01:37.895Z,52.80
2019-05-17T19:04:08.806Z,53.20
2019-05-17T19:06:39.818Z,53.20
2019-05-17T19:09:10.725Z,53.50
2019-05-17T19:11:41.667Z,53.40
2019-05-17T19:14:12.527Z,53.50
2019-05-17T19:16:43.401Z,53.80
2019-05-17T19:19:14.332Z,53.90
2019-05-17T19:21:45.232Z,54.10
2019-05-17T19:24:17.234Z,54.20
2019-05-17T19:26:48.078Z,54.70
2019-05-17T19:29:19.071Z,54.60
2019-05-17T19:31:49.996Z,54.80
2019-05-17T19:34:20.909Z,55.40
2019-05-17T19:36:51.833Z,55.10
2019-05-17T19:39:22.777Z,55.10
2019-05-17T19:41:53.686Z,55.30
2019-05-17T19:44:24.654Z,55.60
2019-05-17T19:46:55.576Z,55.60
2019-05-17T19:49:32.986Z,56.40
2019-05-17T19:52:04.174Z,56.00
2019-05-17T19:54:35.180Z,56.20
2019-05-17T19:57:06.097Z,56.40
2019-05-17T19:59:37.065Z,56.60
2019-05-17T20:02:08.067Z,56.50
2019-05-17T20:04:39.065Z,56.80
2019-05-17T20:07:10.357Z,57.10
2019-05-17T20:09:41.569Z,57.20
2019-05-17T20:12:12.702Z,57.30
2019-05-17T20:14:43.909Z,57.60
2019-05-17T20:17:14.894Z,57.60
2019-05-17T20:19:45.847Z,58.00
2019-05-17T20:22:16.813Z,58.60
2019-05-17T20:24:47.756Z,57.90
2019-05-17T20:27:18.725Z,58.30
2019-05-17T20:29:50.647Z,58.20
2019-05-17T20:32:21.626Z,58.50
2019-05-17T20:34:52.580Z,58.90
2019-05-17T20:37:23.562Z,59.10
2019-05-17T20:39:54.476Z,58.90
2019-05-17T20:42:25.381Z,59.10
2019-05-17T20:44:56.329Z,59.20
2019-05-17T20:47:27.242Z,59.40
2019-05-17T20:49:58.254Z,59.50
2019-05-17T20:52:29.122Z,59.60
2019-05-17T20:55:00.087Z,59.70
2019-05-17T20:57:30.951Z,60.30
2019-05-17T21:00:02.734Z,59.90
2019-05-17T21:02:35.259Z,60.10
2019-05-17T21:05:07.709Z,60.20
2019-05-17T21:07:38.624Z,60.40
2019-05-17T21:10:10.678Z,60.70
2019-05-17T21:12:41.649Z,60.70
2019-05-17T21:15:12.688Z,60.70
2019-05-17T21:17:43.668Z,61.10
2019-05-17T21:20:14.756Z,61.10
2019-05-17T21:22:45.672Z,61.10
2019-05-17T21:25:16.987Z,61.50
2019-05-17T21:27:47.992Z,61.60
2019-05-17T21:30:19.169Z,61.60
2019-05-17T21:32:50.047Z,62.00
2019-05-17T21:35:20.941Z,61.90
2019-05-17T21:37:52.091Z,62.00
2019-05-17T21:40:23.056Z,62.30
2019-05-17T21:42:53.951Z,62.40
2019-05-17T21:45:24.877Z,62.70
2019-05-17T21:47:55.818Z,62.80
2019-05-17T21:50:26.687Z,62.70
2019-05-17T21:52:57.578Z,63.00
2019-05-17T21:55:28.440Z,63.00
2019-05-17T21:57:59.305Z,63.10
2019-05-17T22:01:22.550Z,63.30
2019-05-17T22:03:53.613Z,63.30
2019-05-17T22:06:24.543Z,63.60
2019-05-17T22:08:55.389Z,63.60
2019-05-17T22:11:26.386Z,64.00
2019-05-17T22:13:57.186Z,63.90
2019-05-17T22:16:28.059Z,64.00
2019-05-17T22:18:59.896Z,64.30
2019-05-17T22:21:30.749Z,64.20
2019-05-17T22:24:01.645Z,64.50
2019-05-17T22:26:32.556Z,64.50
2019-05-17T22:29:03.507Z,65.00
2019-05-17T22:31:34.447Z,64.90
2019-05-17T22:34:05.356Z,65.00
2019-05-17T22:36:36.356Z,65.00
2019-05-17T22:39:08.173Z,65.20
2019-05-17T22:41:39.130Z,65.40
2019-05-17T22:44:09.975Z,65.60
2019-05-17T22:46:40.828Z,65.60
2019-05-17T22:49:11.786Z,66.20
2019-05-17T22:51:42.645Z,66.10
2019-05-17T22:54:13.634Z,66.00
2019-05-17T22:56:44.609Z,66.00
2019-05-17T22:59:15.484Z,66.20
2019-05-17T23:01:46.348Z,66.20
2019-05-17T23:04:17.280Z,66.40
2019-05-17T23:06:48.113Z,66.50
2019-05-17T23:09:19.391Z,66.60
2019-05-17T23:11:50.264Z,66.50
2019-05-17T23:14:21.093Z,66.90
2019-05-17T23:16:52.276Z,66.90
2019-05-17T23:19:23.323Z,66.80
2019-05-17T23:21:54.249Z,67.10
2019-05-17T23:24:25.078Z,67.40
2019-05-17T23:26:57.023Z,67.40
2019-05-17T23:29:27.911Z,67.20
2019-05-17T23:31:58.744Z,67.50
2019-05-17T23:34:29.671Z,67.50
2019-05-17T23:37:00.570Z,67.60
2019-05-17T23:39:31.449Z,67.70
2019-05-17T23:42:02.332Z,67.70
2019-05-17T23:44:33.311Z,67.90
2019-05-17T23:47:06.944Z,67.80
2019-05-17T23:49:36.644Z,67.90
2019-05-17T23:52:07.538Z,68.10
2019-05-17T23:54:39.460Z,68.10
2019-05-17T23:57:10.689Z,68.20
2019-05-17T23:59:41.500Z,68.20
